• Join FlightAware (Why Join?)
  • Login
  • US Flag 
Trick or treat! (Boo!!) 
08:32PM EDT


 

Airport Tracker/Info


-or-


 

Live Flight TrackerFlight Track Log ✈ N120EA ✈ 08-May-2013 ✈ KOSH - KAPF

Flight Track Log - Related Links

Times and Time Zones

All times are in EDT time to prevent confusion due to time zone crossing. See the N120EA flight status page for this flight to view local times or setup timezone preferences in your user account.

Time Position Orientation Groundspeed Altitude Reporting Facility
EDT Latitude Longitude Course Direction KTS MPH feet Rate Location/Type
01:44PM 43.9833 -88.5333 55° Northeast 185 213 1,700  Level KMKE
01:45PM 44.0000 -88.5000 55° Northeast 157 181 3,000 2,880 Climbing KMKE
01:46PM 44.0000 -88.4333 90° East 185 213 6,100 2,700 Climbing KMKE
01:47PM 43.9833 -88.3500 106° East 181 208 8,400 2,160 Climbing KMKE
01:48PM 43.9667 -88.3000 115° Southeast 201 231 10,700 1,920 Climbing KMKE
01:50PM 43.8403 -88.2494 164° South 212 244 15,200 1,860 Climbing Chicago Center
01:51PM 43.7731 -88.2253 165° South 214 246 17,200 1,680 Climbing Chicago Center
01:52PM 43.7117 -88.2050 167° South 224 258 18,700 1,440 Climbing Chicago Center
01:53PM 43.6489 -88.1822 165° South 230 265 20,200 1,500 Climbing Chicago Center
01:54PM 43.5828 -88.1586 165° South 241 277 21,800 1,500 Climbing Chicago Center
01:56PM 43.5142 -88.1342 166° South 251 289 23,300 1,500 Climbing Chicago Center
01:57PM 43.4439 -88.1100 166° South 257 296 24,900 1,500 Climbing Chicago Center
01:58PM 43.3714 -88.0853 166° South 265 305 26,500 1,500 Climbing Chicago Center
01:59PM 43.2858 -88.0564 166° South 270 311 28,000 720 Climbing Chicago Center
02:00PM 43.2075 -88.0292 166° South 285 328 28,000  Level Chicago Center
02:01PM 43.1272 -88.0011 166° South 295 339 28,000  Level Chicago Center
02:02PM 43.0467 -87.9736 166° South 297 342 28,000 960 Level Chicago Center
02:03PM 42.9672 -87.9464 166° South 292 336 30,000 1,620 Climbing Chicago Center
02:04PM 42.8925 -87.9200 165° South 279 321 31,400 1,200 Climbing Chicago Center
02:05PM 42.8150 -87.8936 166° South 284 327 32,600 1,380 Climbing Chicago Center
02:06PM 42.7236 -87.8636 166° South 286 329 34,300 1,500 Climbing Chicago Center
02:07PM 42.6447 -87.8575 177° South 285 328 35,700 1,200 Climbing Chicago Center
02:08PM 42.5681 -87.8561 179° South 276 318 36,900 960 Climbing Chicago Center
02:09PM 42.4900 -87.8467 175° South 283 326 37,700 780 Climbing Chicago Center
02:10PM 42.4125 -87.8153 163° South 289 333 38,500 900 Climbing Chicago Center
02:11PM 42.3222 -87.7853 166° South 289 333 39,600 840 Climbing Chicago Center
02:12PM 42.2453 -87.7597 166° South 286 329 40,300 660 Climbing Chicago Center
02:13PM 42.1672 -87.7333 166° South 289 333 41,000 300 Climbing Chicago Center
02:14PM 42.0881 -87.7067 166° South 294 338 41,000  Level Chicago Center
02:15PM 42.0022 -87.6772 166° South 314 361 41,000  Level Chicago Center
02:16PM 41.9142 -87.6475 166° South 325 374 41,000  Level Chicago Center
02:17PM 41.8044 -87.6106 166° South 337 388 41,000  Level Chicago Center
02:18PM 41.7122 -87.5789 166° South 341 392 41,000  Level Chicago Center
02:19PM 41.6192 -87.5472 166° South 344 396 41,000  Level Chicago Center
02:20PM 41.5253 -87.5161 166° South 346 398 41,000  Level Chicago Center
02:21PM 41.4314 -87.4850 166° South 347 399 41,000  Level Chicago Center
02:22PM 41.3369 -87.4539 166° South 348 400 41,000  Level Chicago Center
02:23PM 41.2236 -87.4161 166° South 349 402 41,000  Level Chicago Center
02:24PM 41.1281 -87.3872 167° South 350 403 41,000  Level Chicago Center
02:25PM 41.0339 -87.3550 166° South 350 403 41,000  Level Chicago Center
02:26PM 40.9392 -87.3244 166° South 351 404 41,000  Level Chicago Center
02:28PM 40.8453 -87.2931 166° South 350 403 41,000  Level Chicago Center
02:29PM 40.7506 -87.2636 167° South 350 403 41,000  Level Chicago Center
02:30PM 40.6369 -87.2264 166° South 351 404 41,000  Level Chicago Center
02:31PM 40.5417 -87.1953 166° South 352 405 41,000  Level Chicago Center
02:32PM 40.4442 -87.1642 166° South 355 409 41,000  Level Chicago Center
02:33PM 40.3497 -87.1333 166° South 353 406 41,000  Level Chicago Center
02:34PM 40.2553 -87.1031 166° South 351 404 41,000  Level Chicago Center
02:35PM 40.1600 -87.0719 166° South 354 407 41,000  Level Chicago Center
02:35PM 40.1014 -87.0533 166° South 353 406 41,000  Level Indianapolis Center
02:36PM 40.0075 -87.0231 166° South 351 404 41,000  Level Indianapolis Center
02:37PM 39.9117 -86.9936 167° South 355 409 41,000  Level Indianapolis Center
02:38PM 39.8175 -86.9628 166° South 352 405 41,000  Level Indianapolis Center
02:39PM 39.7017 -86.9272 167° South 359 413 41,000  Level Indianapolis Center
02:40PM 39.6081 -86.8964 166° South 353 406 41,000  Level Indianapolis Center
02:41PM 39.5106 -86.8672 167° South 359 413 41,000  Level Indianapolis Center
02:42PM 39.4164 -86.8378 166° South 353 406 41,000  Level Indianapolis Center
02:43PM 39.3181 -86.8069 166° South 362 417 41,000  Level Indianapolis Center
02:45PM 39.2022 -86.7703 166° South 359 413 41,000  Level Indianapolis Center
02:46PM 39.1172 -86.7447 167° South 362 417 41,000  Level Indianapolis Center
02:47PM 39.0192 -86.7142 166° South 361 415 41,000  Level Indianapolis Center
02:48PM 38.9014 -86.6781 167° South 360 414 41,000  Level Indianapolis Center
02:49PM 38.8028 -86.6461 166° South 362 417 41,000  Level Indianapolis Center
02:50PM 38.7042 -86.6172 167° South 360 414 41,000  Level Indianapolis Center
02:51PM 38.6056 -86.5872 167° South 361 415 41,000  Level Indianapolis Center
02:52PM 38.5069 -86.5575 167° South 362 417 41,000  Level Indianapolis Center
02:53PM 38.4086 -86.5269 166° South 361 415 41,000  Level Indianapolis Center
02:54PM 38.3097 -86.4978 167° South 360 414 41,000  Level Indianapolis Center
02:55PM 38.2111 -86.4664 166° South 361 415 41,000  Level Indianapolis Center
02:56PM 38.1125 -86.4383 167° South 360 414 41,000  Level Indianapolis Center
02:57PM 37.9942 -86.4022 166° South 361 415 41,000  Level Indianapolis Center
02:58PM 37.8958 -86.3733 167° South 360 414 41,000  Level Indianapolis Center
02:59PM 37.7994 -86.3450 167° South 358 412 41,000  Level Indianapolis Center
03:00PM 37.7014 -86.3167 167° South 358 412 41,000  Level Indianapolis Center
03:01PM 37.6022 -86.2858 166° South 360 414 41,000  Level Indianapolis Center
03:01PM 37.5519 -86.2711 167° South 359 413 41,000  Level Memphis Center
03:02PM 37.4553 -86.2422 167° South 359 413 41,000  Level Memphis Center
03:03PM 37.3586 -86.2133 167° South 359 413 41,000  Level Memphis Center
03:04PM 37.2617 -86.1844 167° South 359 413 41,000  Level Memphis Center
03:05PM 37.1756 -86.1606 168° South 359 413 41,000  Level Memphis Center
03:06PM 37.0786 -86.1317 167° South 359 413 41,000  Level Memphis Center
03:07PM 36.9797 -86.1033 167° South 359 413 41,000  Level Memphis Center
03:08PM 36.8831 -86.0747 167° South 359 413 41,000  Level Memphis Center
03:09PM 36.7881 -86.0461 166° South 359 413 41,000  Level Memphis Center
03:10PM 36.6786 -86.0156 167° South 359 413 41,000  Level Memphis Center
03:11PM 36.5819 -85.9872 167° South 359 413 41,000  Level Memphis Center
03:12PM 36.4808 -85.9592 167° South 364 419 41,000  Level Memphis Center
03:13PM 36.3839 -85.9308 167° South 364 419 41,000  Level Memphis Center
03:14PM 36.2828 -85.9003 166° South 364 419 41,000  Level Memphis Center
03:15PM 36.1858 -85.8722 167° South 364 419 41,000  Level Memphis Center
03:16PM 36.0869 -85.8469 168° South 364 419 41,000  Level Memphis Center
03:17PM 35.9881 -85.8189 167° South 359 413 41,000  Level Memphis Center
03:18PM 35.8889 -85.7911 167° South 359 413 41,000  Level Memphis Center
03:20PM 35.7211 -85.7422 167° South 368 423 41,000  Level Atlanta Center
03:21PM 35.6214 -85.7147 167° South 368 423 41,000  Level Atlanta Center
03:22PM 35.5236 -85.6897 168° South 368 423 41,000  Level Atlanta Center
03:23PM 35.4281 -85.6622 167° South 368 423 41,000  Level Atlanta Center
03:24PM 35.3303 -85.6350 167° South 368 423 41,000  Level Atlanta Center
03:25PM 35.2347 -85.6103 168° South 363 418 41,000  Level Atlanta Center
03:26PM 35.1392 -85.5806 166° South 358 412 41,000  Level Atlanta Center
03:27PM 35.0433 -85.5558 168° South 353 406 41,000  Level Atlanta Center
03:28PM 34.9478 -85.5314 168° South 353 406 41,000  Level Atlanta Center
03:29PM 34.8519 -85.5017 166° South 353 406 41,000  Level Atlanta Center
03:30PM 34.7583 -85.4775 168° South 353 406 41,000  Level Atlanta Center
03:31PM 34.6628 -85.4506 167° South 353 406 41,000  Level Atlanta Center
03:32PM 34.5711 -85.4236 166° South 353 406 41,000  Level Atlanta Center
03:33PM 34.4756 -85.3994 168° South 353 406 41,000  Level Atlanta Center
03:34PM 34.3736 -85.3703 167° South 348 400 41,000  Level Atlanta Center
03:35PM 34.2800 -85.3461 168° South 348 400 41,000  Level Atlanta Center
03:36PM 34.1842 -85.3219 168° South 348 400 41,000  Level Atlanta Center
03:37PM 34.0989 -85.2981 167° South 353 406 41,000  Level Atlanta Center
03:38PM 34.0053 -85.2742 168° South 353 406 41,000  Level Atlanta Center
03:39PM 33.9072 -85.2453 166° South 353 406 41,000  Level Atlanta Center
03:40PM 33.8136 -85.2214 168° South 353 406 41,000  Level Atlanta Center
03:41PM 33.7178 -85.1950 167° South 353 406 41,000  Level Atlanta Center
03:42PM 33.6242 -85.1714 168° South 353 406 41,000  Level Atlanta Center
03:43PM 33.5283 -85.1453 167° South 353 406 41,000  Level Atlanta Center
03:44PM 33.4325 -85.1217 168° South 353 406 41,000  Level Atlanta Center
03:45PM 33.3369 -85.0931 166° South 353 406 41,000  Level Atlanta Center
03:46PM 33.2431 -85.0694 168° South 353 406 41,000  Level Atlanta Center
03:47PM 33.1369 -85.0436 168° South 353 406 41,000  Level Atlanta Center
03:48PM 33.0411 -85.0178 167° South 353 406 41,000  Level Atlanta Center
03:49PM 32.9453 -84.9919 167° South 353 406 41,000  Level Atlanta Center
03:50PM 32.8514 -84.9661 167° South 353 406 41,000  Level Atlanta Center
03:51PM 32.7619 -84.9381 165° South 347 399 41,000  Level Atlanta Center
03:52PM 32.6681 -84.9122 167° South 353 406 41,000  Level Atlanta Center
03:53PM 32.5703 -84.8892 169° South 353 406 41,000  Level Atlanta Center
03:54PM 32.4744 -84.8611 166° South 353 406 41,000  Level Atlanta Center
03:55PM 32.3764 -84.8381 169° South 353 406 41,000  Level Atlanta Center
03:56PM 32.2931 -84.8178 168° South 353 406 41,000  Level Atlanta Center
03:57PM 32.1953 -84.7947 169° South 353 406 41,000  Level Atlanta Center
03:58PM 32.1014 -84.7694 167° South 353 406 41,000  Level Atlanta Center
04:00PM 31.9403 -84.7264 167° South 354 407 41,000  Level Jacksonville Center
04:01PM 31.8489 -84.7025 167° South 354 407 41,000  Level Jacksonville Center
04:02PM 31.7428 -84.6758 168° South 354 407 41,000  Level Jacksonville Center
04:03PM 31.6492 -84.6497 167° South 354 407 41,000  Level Jacksonville Center
04:04PM 31.5556 -84.6186 164° South 354 407 41,000  Level Jacksonville Center
04:05PM 31.4644 -84.5731 157° South 354 407 41,000  Level Jacksonville Center
04:06PM 31.3750 -84.5303 158° South 359 413 41,000  Level Jacksonville Center
04:07PM 31.2858 -84.4850 157° South 354 407 41,000  Level Jacksonville Center
04:08PM 31.1947 -84.4372 156° South 354 407 41,000  Level Jacksonville Center
04:09PM 31.1033 -84.3897 156° South 354 407 41,000  Level Jacksonville Center
04:10PM 31.0100 -84.3444 157° South 354 407 41,000  Level Jacksonville Center
04:11PM 30.9206 -84.2972 156° South 354 407 41,000  Level Jacksonville Center
04:12PM 30.8272 -84.2547 159° South 354 407 41,000  Level Jacksonville Center
04:13PM 30.7358 -84.2075 156° South 354 407 41,000  Level Jacksonville Center
04:14PM 30.6422 -84.1603 157° South 354 407 41,000  Level Jacksonville Center
04:15PM 30.5675 -84.1231 157° South 359 413 41,000  Level Jacksonville Center
04:16PM 30.4572 -84.0686 157° South 354 407 41,000  Level Jacksonville Center
04:18PM 30.2722 -83.9772 157° South 359 413 41,000  Level Jacksonville Center
04:19PM 30.1789 -83.9331 158° South 359 413 41,000  Level Jacksonville Center
04:20PM 30.0853 -83.8889 158° South 359 413 41,000  Level Jacksonville Center
04:21PM 29.9917 -83.8422 157° South 359 413 41,000  Level Jacksonville Center
04:22PM 29.8981 -83.7983 158° South 364 419 41,000  Level Jacksonville Center
04:23PM 29.8044 -83.7519 157° South 364 419 41,000 -120 Level Jacksonville Center
04:24PM 29.7128 -83.7081 157° South 364 419 40,800 -540 Descending Jacksonville Center
04:25PM 29.6169 -83.6594 156° South 364 419 40,000 -900 Descending Jacksonville Center
04:26PM 29.5211 -83.6158 158° South 371 427 39,100 -540 Descending Jacksonville Center
04:27PM 29.4256 -83.5697 157° South 376 433 39,000 -60 Descending Jacksonville Center
04:28PM 29.3297 -83.5239 157° South 376 433 39,000  Level Jacksonville Center
04:29PM 29.2464 -83.4806 156° South 376 433 39,000  Level Jacksonville Center
04:30PM 29.1547 -83.4372 158° South 376 433 39,000  Level Jacksonville Center
04:31PM 29.0653 -83.3939 157° South 369 425 39,000  Level Jacksonville Center
04:32PM 28.9733 -83.3506 158° South 364 419 39,000  Level Jacksonville Center
04:33PM 28.8797 -83.3383 173° South 346 398 39,000  Level Jacksonville Center
04:34PM 28.7856 -83.3428 182° South 335 386 39,000  Level Jacksonville Center
04:35PM 28.6939 -83.3469 182° South 335 386 39,000  Level Jacksonville Center
04:36PM 28.6000 -83.3514 182° South 335 386 39,000 -540 Level Jacksonville Center
04:37PM 28.4417 -83.3500 180° South 345 397 37,700 -1,200 Descending Miami Center
04:38PM 28.3431 -83.3608 186° South 359 413 36,000 -1,380 Descending Miami Center
04:39PM 28.2489 -83.3672 183° South 359 413 35,000 -540 Descending Miami Center
04:40PM 28.1508 -83.3733 183° South 348 400 35,000 -480 Level Miami Center
04:41PM 28.0528 -83.3747 181° South 353 406 34,100 -1,020 Descending Miami Center
04:42PM 27.9611 -83.3692 177° South 346 398 33,000 -1,200 Descending Miami Center
04:43PM 27.8758 -83.3644 120° Southeast 346 398 31,800 -1,140 Descending Miami Center
04:44PM 27.9140 -83.2763 120° Southeast  Level FlightAware Approximate
04:44PM 27.7950 -83.3058 147° Southeast 334 384 30,800  Level Miami Center
04:45PM 27.7169 -83.2358 142° Southeast 344 396 30,100 -780 Descending Miami Center
04:46PM 27.6261 -83.1675 146° Southeast 363 418 29,300 -960 Descending Miami Center
04:47PM 27.5394 -83.0972 144° Southeast 380 437 28,200 -1,080 Descending Miami Center
04:49PM 27.4632 -83.0353 144° Southeast  Level FlightAware Approximate
04:49PM 27.3658 -82.9569 144° Southeast 386 444 26,100  Level Miami Center
04:50PM 27.2811 -82.8894 145° Southeast 391 450 25,100 -1,020 Descending Miami Center
04:51PM 27.1964 -82.8219 145° Southeast 381 438 24,100 -1,080 Descending Miami Center
04:52PM 27.1156 -82.7572 145° Southeast 374 430 23,000 -1,500 Descending Miami Center
04:53PM 27.0306 -82.6900 145° Southeast 374 430 21,200 -2,100 Descending Miami Center
04:54PM 26.9478 -82.6231 144° Southeast 374 430 18,900 -2,220 Descending Miami Center
04:55PM 26.8628 -82.5558 145° Southeast 369 425 16,800 -2,280 Descending Miami Center
04:56PM 26.7797 -82.4892 144° Southeast 369 425 14,400 -2,400 Descending Miami Center
04:57PM 26.6989 -82.4250 145° Southeast 364 419 12,000 -2,340 Descending Miami Center
04:58PM 26.6278 -82.3703 145° Southeast 340 391 9,800 -2,100 Descending Miami Center
04:59PM 26.5628 -82.3233 147° Southeast 309 356 7,800 -1,440 Descending Miami Center
05:00PM 26.4978 -82.2739 146° Southeast 288 331 7,000 -420 Descending Miami Center
05:01PM 26.4328 -82.2292 148° Southeast 283 326 7,000  Level Miami Center
05:02PM 26.4064 -82.1492 110° East 267 307 7,000 -660 Level Miami Center
05:03PM 26.3989 -82.0700 96° East 247 284 5,700 -1,020 Descending Miami Center
05:04PM 26.3892 -81.9908 98° East 247 284 5,000 -720 Descending Miami Center
05:06PM 26.3164 -81.9245 141° Southeast  Level Estimated
05:13PM 26.1524 -81.7756 141° Southeast  Level Estimated
05:14PM 26.1524 -81.7756 36° Northeast  Level Estimated
05:15PM 26.1524 -81.7756 36° Northeast  Level Estimated
05:16PM 26.1524 -81.7756 36° Northeast  Level Estimated
05:17PM 26.1524 -81.7756 36° Northeast  Level Estimated
05:18PM 26.1524 -81.7756 36° Northeast  Level Estimated
05:19PM 26.1524 -81.7756 36° Northeast  Level Estimated
05:20PM 26.1524 -81.7756 36° Northeast  Level Estimated
05:21PM 26.1524 -81.7756 36° Northeast  Level Estimated
05:22PM 26.1524 -81.7756 36° Northeast  Level Estimated
05:23PM 26.1524 -81.7756 36° Northeast  Level Estimated
05:24PM 26.1524 -81.7756 36° Northeast  Level Estimated